Terminal Aerodrome Forecast
Issued by NWS

Home | Current Version | Previous Version | Text Only | Print | Product List | Glossary On
Versions: 1 2 3 4 5 6 7 8 9 10 11 12 13 14 15 16 17 18 19 20 21 22 23 24 25 26 27
000
FTUS43 KDVN 251130
TAFBRL
TAF
KBRL 251130Z 2512/2612 08012KT P6SM VCSH SCT007 OVC015
      TEMPO 2512/2514 4SM -SHRA BKN008 OVC012
     FM251400 07013G22KT 3SM -SHRA BR VCTS SCT007 OVC012CB
      TEMPO 2514/2517 2SM -TSRA BKN008CB
     FM251800 06014G21KT 6SM BR VCSH BKN008 OVC015
     FM260200 05012KT P6SM OVC020
     FM260600 05008KT P6SM BKN050=

USA.gov is the U.S. government's official web portal to all federal, state and local government web resources and services.